createdAt,value
2018-09-18T00:01:19.998Z,8.77
2018-09-18T00:03:49.466Z,8.50
2018-09-18T00:06:18.157Z,8.00
2018-09-18T00:08:48.291Z,8.20
2018-09-18T00:11:16.891Z,7.23
2018-09-18T00:13:45.398Z,8.67
2018-09-18T00:16:13.989Z,8.70
2018-09-18T00:18:42.526Z,7.70
2018-09-18T00:21:10.999Z,7.90
2018-09-18T00:23:39.499Z,8.63
2018-09-18T00:26:08.087Z,7.33
2018-09-18T00:28:36.626Z,8.20
2018-09-18T00:31:05.161Z,7.30
2018-09-18T00:33:33.668Z,8.00
2018-09-18T00:36:02.372Z,7.43
2018-09-18T00:38:30.941Z,7.63
2018-09-18T00:40:59.789Z,8.73
2018-09-18T00:43:28.286Z,7.67
2018-09-18T00:45:57.122Z,8.07
2018-09-18T00:48:25.646Z,7.47
2018-09-18T00:50:54.190Z,7.67
2018-09-18T00:53:22.683Z,7.63
2018-09-18T00:55:51.245Z,7.63
2018-09-18T00:58:19.750Z,8.50
2018-09-18T01:00:48.350Z,7.80
2018-09-18T01:03:16.958Z,8.90
2018-09-18T01:05:45.570Z,8.60
2018-09-18T01:08:14.118Z,8.80
2018-09-18T01:10:42.912Z,8.30
2018-09-18T01:13:11.621Z,9.00
2018-09-18T01:15:40.225Z,7.90
2018-09-18T01:18:09.359Z,9.10
2018-09-18T01:20:38.167Z,8.97
2018-09-18T01:23:06.970Z,8.80
2018-09-18T01:25:35.767Z,9.47
2018-09-18T01:28:04.294Z,8.60
2018-09-18T01:30:33.318Z,8.50
2018-09-18T01:33:01.913Z,8.93
2018-09-18T01:35:30.434Z,8.73
2018-09-18T01:37:58.938Z,8.10
2018-09-18T01:40:27.783Z,9.07
2018-09-18T01:42:56.291Z,8.87
2018-09-18T01:45:24.811Z,8.57
2018-09-18T01:47:53.261Z,9.13
2018-09-18T01:50:21.815Z,8.30
2018-09-18T01:52:50.267Z,9.60
2018-09-18T01:55:18.793Z,8.13
2018-09-18T01:57:47.377Z,10.40
2018-09-18T02:00:15.885Z,9.07
2018-09-18T02:02:44.382Z,9.23
2018-09-18T02:05:12.895Z,8.50
2018-09-18T02:07:41.718Z,8.23
2018-09-18T02:10:10.185Z,8.97
2018-09-18T02:12:38.847Z,9.57
2018-09-18T02:15:07.366Z,9.13
2018-09-18T02:17:35.869Z,8.40
2018-09-18T02:20:04.701Z,9.30
2018-09-18T02:22:33.223Z,9.50
2018-09-18T02:25:01.743Z,8.10
2018-09-18T02:27:30.237Z,9.50
2018-09-18T02:29:58.755Z,9.53
2018-09-18T02:32:27.594Z,10.13
2018-09-18T02:34:56.138Z,8.70
2018-09-18T02:37:24.589Z,9.70
2018-09-18T02:39:53.150Z,9.73
2018-09-18T02:42:22.397Z,9.47
2018-09-18T02:44:51.490Z,9.37
2018-09-18T02:47:19.982Z,8.60
2018-09-18T02:49:50.047Z,8.40
2018-09-18T02:52:18.947Z,8.93
2018-09-18T02:54:47.478Z,8.30
2018-09-18T02:57:16.023Z,9.33
2018-09-18T02:59:44.486Z,9.43
2018-09-18T03:02:13.032Z,9.10
2018-09-18T03:04:41.537Z,8.07
2018-09-18T03:07:10.414Z,10.40
2018-09-18T03:09:38.919Z,8.57
2018-09-18T03:12:07.578Z,9.23
2018-09-18T03:14:36.079Z,9.17
2018-09-18T03:17:04.799Z,9.37
2018-09-18T03:19:33.349Z,10.17
2018-09-18T03:22:01.808Z,9.53
2018-09-18T03:24:30.363Z,9.93
2018-09-18T03:26:59.515Z,9.10
2018-09-18T03:29:28.873Z,10.10
2018-09-18T03:31:57.385Z,9.53
2018-09-18T03:34:27.119Z,9.00
2018-09-18T03:36:58.656Z,9.60
2018-09-18T03:39:27.139Z,9.80
2018-09-18T03:41:55.649Z,8.80
2018-09-18T03:44:24.131Z,9.50
2018-09-18T03:46:52.658Z,9.10
2018-09-18T03:49:21.110Z,9.83
2018-09-18T03:51:49.905Z,10.07
2018-09-18T03:54:18.383Z,9.77
2018-09-18T03:56:46.914Z,9.70
2018-09-18T03:59:15.381Z,8.80
2018-09-18T04:01:43.925Z,9.60
2018-09-18T04:04:12.406Z,9.40
2018-09-18T04:06:40.976Z,9.27
2018-09-18T04:09:11.166Z,10.10
2018-09-18T04:11:39.992Z,9.60
2018-09-18T04:14:08.560Z,11.13
2018-09-18T04:16:37.099Z,9.60
2018-09-18T04:19:05.803Z,9.63
2018-09-18T04:21:41.504Z,9.80
2018-09-18T04:24:10.185Z,9.90
2018-09-18T04:26:40.059Z,9.93
2018-09-18T04:29:09.395Z,10.53
2018-09-18T04:31:39.295Z,8.83
2018-09-18T04:34:07.845Z,10.47
2018-09-18T04:36:36.619Z,10.30
2018-09-18T04:39:08.258Z,8.90
2018-09-18T04:41:36.758Z,9.20
2018-09-18T04:44:05.288Z,9.97
2018-09-18T04:46:33.746Z,9.10
2018-09-18T04:49:02.274Z,10.17
2018-09-18T04:51:30.747Z,10.47
2018-09-18T04:53:59.380Z,9.57
2018-09-18T04:56:28.387Z,9.67
2018-09-18T04:58:56.991Z,10.50
2018-09-18T05:01:25.510Z,9.00
2018-09-18T05:03:53.985Z,9.73
2018-09-18T05:06:22.762Z,9.67
2018-09-18T05:08:52.843Z,10.33
2018-09-18T05:11:21.366Z,10.23
2018-09-18T05:13:49.949Z,10.10
2018-09-18T05:16:18.454Z,9.80
2018-09-18T05:18:47.115Z,10.57
2018-09-18T05:21:16.218Z,9.90
2018-09-18T05:23:45.980Z,11.03
2018-09-18T05:26:14.919Z,9.80
2018-09-18T05:28:43.422Z,10.30
2018-09-18T05:31:11.937Z,11.10
2018-09-18T05:33:40.459Z,10.33
2018-09-18T05:36:09.150Z,9.60
2018-09-18T05:38:37.790Z,10.47
2018-09-18T05:41:06.323Z,10.63
2018-09-18T05:43:34.843Z,9.20
2018-09-18T05:46:03.366Z,10.80
2018-09-18T05:48:34.694Z,9.43
2018-09-18T05:51:03.612Z,9.57
2018-09-18T05:53:32.097Z,9.93
2018-09-18T05:56:00.662Z,10.50
2018-09-18T05:58:29.714Z,10.00
2018-09-18T06:00:58.270Z,9.63
2018-09-18T06:03:27.749Z,10.63
2018-09-18T06:05:56.309Z,10.60
2018-09-18T06:08:24.934Z,10.57
2018-09-18T06:10:53.434Z,10.37
2018-09-18T06:13:21.958Z,9.77
2018-09-18T06:15:51.407Z,10.70
2018-09-18T06:18:20.027Z,10.57
2018-09-18T06:20:48.574Z,10.63
2018-09-18T06:23:17.122Z,12.90
2018-09-18T06:25:45.710Z,13.00
2018-09-18T06:28:14.318Z,11.37
2018-09-18T06:30:44.515Z,13.03
2018-09-18T06:33:13.143Z,12.70
2018-09-18T06:35:41.632Z,12.07
2018-09-18T06:38:10.170Z,13.47
2018-09-18T06:40:38.703Z,13.57
2018-09-18T06:43:07.290Z,11.73
2018-09-18T06:45:35.784Z,11.87
2018-09-18T06:48:05.061Z,11.90
2018-09-18T06:50:33.428Z,13.03
2018-09-18T06:53:01.931Z,11.93
2018-09-18T06:55:30.523Z,11.37
2018-09-18T06:57:59.119Z,11.40
2018-09-18T07:00:27.622Z,11.43
2018-09-18T07:02:56.237Z,10.03
2018-09-18T07:05:24.758Z,13.03
2018-09-18T07:07:53.302Z,11.93
2018-09-18T07:10:22.530Z,12.13
2018-09-18T07:12:51.277Z,13.00
2018-09-18T07:15:19.871Z,11.00
2018-09-18T07:17:48.406Z,11.27
2018-09-18T07:20:17.416Z,10.47
2018-09-18T07:22:46.113Z,11.60
2018-09-18T07:25:14.617Z,12.37
2018-09-18T07:27:43.131Z,10.27
2018-09-18T07:30:11.692Z,9.87
2018-09-18T07:32:40.239Z,12.47
2018-09-18T07:35:08.768Z,11.60
2018-09-18T07:37:38.202Z,10.47
2018-09-18T07:40:06.900Z,10.57
2018-09-18T07:42:35.455Z,10.30
2018-09-18T07:45:04.005Z,11.20
2018-09-18T07:47:32.549Z,10.80
2018-09-18T07:50:01.030Z,9.83
2018-09-18T07:52:29.628Z,8.90
2018-09-18T07:54:58.225Z,9.73
2018-09-18T07:57:26.766Z,9.33
2018-09-18T07:59:55.259Z,11.27
2018-09-18T08:02:23.845Z,11.00
2018-09-18T08:04:52.431Z,9.50
2018-09-18T08:07:21.178Z,9.30
2018-09-18T08:09:49.736Z,8.40
2018-09-18T08:12:18.316Z,8.97
2018-09-18T08:14:47.455Z,9.30
2018-09-18T08:17:16.020Z,9.60
2018-09-18T08:19:44.666Z,8.20
2018-09-18T08:22:13.247Z,9.10
2018-09-18T08:24:41.741Z,8.33
2018-09-18T08:27:10.992Z,8.70
2018-09-18T08:29:39.905Z,9.97
2018-09-18T08:32:08.533Z,8.63
2018-09-18T08:34:37.020Z,8.23
2018-09-18T08:37:06.291Z,8.57
2018-09-18T08:39:34.800Z,8.60
2018-09-18T08:42:04.306Z,9.10
2018-09-18T08:44:32.804Z,7.23
2018-09-18T08:47:01.412Z,8.33
2018-09-18T08:49:29.912Z,9.00
2018-09-18T08:51:58.564Z,8.90
2018-09-18T08:54:29.120Z,9.00
2018-09-18T08:56:58.545Z,7.80
2018-09-18T08:59:27.309Z,10.10
2018-09-18T09:01:56.396Z,9.80
2018-09-18T09:04:24.954Z,10.63
2018-09-18T09:06:53.635Z,10.33
2018-09-18T09:09:22.247Z,9.47
2018-09-18T09:11:50.790Z,11.63
2018-09-18T09:14:19.328Z,11.57
2018-09-18T09:16:47.875Z,8.80
2018-09-18T09:19:17.615Z,8.63
2018-09-18T09:21:46.331Z,9.30
2018-09-18T09:24:14.839Z,9.30
2018-09-18T09:26:43.379Z,8.93
2018-09-18T09:29:11.932Z,8.73
2018-09-18T09:31:41.270Z,8.50
2018-09-18T09:34:09.833Z,8.67
2018-09-18T09:36:38.474Z,10.03
2018-09-18T09:39:09.813Z,9.60
2018-09-18T09:41:39.010Z,10.20
2018-09-18T09:44:07.888Z,10.63
2018-09-18T09:46:36.392Z,9.30
2018-09-18T09:49:05.029Z,11.17
2018-09-18T09:51:33.642Z,9.27
2018-09-18T09:54:02.146Z,8.80
2018-09-18T09:56:30.684Z,8.70
2018-09-18T09:59:00.027Z,8.27
2018-09-18T10:01:34.040Z,8.93
2018-09-18T10:04:02.567Z,8.70
2018-09-18T10:06:31.075Z,8.20
2018-09-18T10:09:01.020Z,8.40
2018-09-18T10:11:29.658Z,9.40
2018-09-18T10:13:58.876Z,8.93
2018-09-18T10:16:27.674Z,7.50
2018-09-18T10:18:56.475Z,7.97
2018-09-18T10:21:24.975Z,8.10
2018-09-18T10:23:53.536Z,8.17
2018-09-18T10:26:24.109Z,8.90
2018-09-18T10:28:52.546Z,7.53
2018-09-18T10:31:21.083Z,7.43
2018-09-18T10:33:49.874Z,8.23
2018-09-18T10:36:18.448Z,7.90
2018-09-18T10:38:47.137Z,8.20
2018-09-18T10:41:16.411Z,7.73
2018-09-18T10:43:44.900Z,7.63
2018-09-18T10:46:13.423Z,7.67
2018-09-18T10:48:47.206Z,7.83
2018-09-18T10:51:15.740Z,7.50
2018-09-18T10:53:44.316Z,7.50
2018-09-18T10:56:12.885Z,6.50
2018-09-18T10:58:41.450Z,7.30
2018-09-18T11:01:10.225Z,7.77
2018-09-18T11:03:39.460Z,7.10
2018-09-18T11:06:08.294Z,7.00
2018-09-18T11:08:37.567Z,7.30
2018-09-18T11:11:07.004Z,7.00
2018-09-18T11:13:35.634Z,7.67
2018-09-18T11:16:04.120Z,7.23
2018-09-18T11:18:32.941Z,6.80
2018-09-18T11:21:01.451Z,6.70
2018-09-18T11:23:29.971Z,7.23
2018-09-18T11:25:58.548Z,6.20
2018-09-18T11:28:27.699Z,5.97
2018-09-18T11:30:56.218Z,5.80
2018-09-18T11:33:24.774Z,5.80
2018-09-18T11:35:53.243Z,5.20
2018-09-18T11:38:22.001Z,5.37
2018-09-18T11:40:50.534Z,4.90
2018-09-18T11:43:19.074Z,5.03
2018-09-18T11:45:47.885Z,5.50
2018-09-18T11:48:16.288Z,5.27
2018-09-18T11:50:44.836Z,4.83
2018-09-18T11:53:14.625Z,5.30
2018-09-18T11:55:45.512Z,7.03
2018-09-18T11:58:14.076Z,6.37
2018-09-18T12:00:42.662Z,5.63
2018-09-18T12:03:11.651Z,5.80
2018-09-18T12:05:40.107Z,5.47
2018-09-18T12:08:09.280Z,5.30
2018-09-18T12:10:38.228Z,6.27
2018-09-18T12:13:06.750Z,5.60
2018-09-18T12:15:35.314Z,5.67
2018-09-18T12:18:03.829Z,5.23
2018-09-18T12:20:32.429Z,6.40
2018-09-18T12:23:00.922Z,4.90
2018-09-18T12:25:29.451Z,6.20
2018-09-18T12:27:57.921Z,5.57
2018-09-18T12:30:26.478Z,6.50
2018-09-18T12:32:55.354Z,6.70
2018-09-18T12:35:24.003Z,6.03
2018-09-18T12:37:52.497Z,5.60
2018-09-18T12:40:21.038Z,6.23
2018-09-18T12:42:49.644Z,5.30
2018-09-18T12:45:18.834Z,5.80
2018-09-18T12:47:47.314Z,6.07
2018-09-18T12:50:16.083Z,5.93
2018-09-18T12:52:44.486Z,6.60
2018-09-18T12:55:13.013Z,5.50
2018-09-18T12:57:41.519Z,5.60
2018-09-18T13:00:10.209Z,5.07
2018-09-18T13:02:38.634Z,5.93
2018-09-18T13:05:08.058Z,5.60
2018-09-18T13:07:36.632Z,5.47
2018-09-18T13:10:05.214Z,4.60
2018-09-18T13:12:33.701Z,4.90
2018-09-18T13:15:02.866Z,4.70
2018-09-18T13:17:31.542Z,5.40
2018-09-18T13:20:00.716Z,5.33
2018-09-18T13:22:29.194Z,5.47
2018-09-18T13:24:57.720Z,5.07
2018-09-18T13:27:26.402Z,4.60
2018-09-18T13:29:54.917Z,4.10
2018-09-18T13:32:23.483Z,4.30
2018-09-18T13:34:53.828Z,4.57
2018-09-18T13:37:22.523Z,5.50
2018-09-18T13:39:51.214Z,5.00
2018-09-18T13:42:19.750Z,5.40
2018-09-18T13:44:48.519Z,5.40
2018-09-18T13:47:17.078Z,4.60
2018-09-18T13:49:45.616Z,4.00
2018-09-18T13:52:14.256Z,4.77
2018-09-18T13:54:42.856Z,5.77
2018-09-18T13:57:11.426Z,5.53
2018-09-18T13:59:40.264Z,5.07
2018-09-18T14:02:09.001Z,5.30
2018-09-18T14:04:37.482Z,5.17
2018-09-18T14:07:06.044Z,5.23
2018-09-18T14:09:34.644Z,6.23
2018-09-18T14:12:03.727Z,5.27
2018-09-18T14:14:32.290Z,4.70
2018-09-18T14:17:00.960Z,5.50
2018-09-18T14:19:29.467Z,5.50
2018-09-18T14:21:58.102Z,5.53
2018-09-18T14:24:26.845Z,4.93
2018-09-18T14:26:55.514Z,5.80
2018-09-18T14:29:24.063Z,5.90
2018-09-18T14:31:52.549Z,5.43
2018-09-18T14:34:21.288Z,5.00
2018-09-18T14:36:49.907Z,4.70
2018-09-18T14:39:18.611Z,4.57
2018-09-18T14:41:47.099Z,4.90
2018-09-18T14:44:15.652Z,6.00
2018-09-18T14:46:44.203Z,5.50
2018-09-18T14:49:12.750Z,5.23
2018-09-18T14:51:41.498Z,6.50
2018-09-18T14:54:10.390Z,5.40
2018-09-18T14:56:38.950Z,4.73
2018-09-18T14:59:07.478Z,4.80
2018-09-18T15:01:36.386Z,4.53
2018-09-18T15:04:05.652Z,5.43
2018-09-18T15:06:34.424Z,5.27
2018-09-18T15:09:03.232Z,4.10
2018-09-18T15:11:33.824Z,4.80
2018-09-18T15:14:02.396Z,5.43
2018-09-18T15:16:31.534Z,4.33
2018-09-18T15:19:00.114Z,5.10
2018-09-18T15:21:28.747Z,5.47
2018-09-18T15:23:57.312Z,5.30
2018-09-18T15:26:26.491Z,5.37
2018-09-18T15:28:55.062Z,4.47
2018-09-18T15:31:23.650Z,4.80
2018-09-18T15:33:52.210Z,4.93
2018-09-18T15:36:21.010Z,4.53
2018-09-18T15:38:49.846Z,5.07
2018-09-18T15:41:18.390Z,5.30
2018-09-18T15:43:46.975Z,4.70
2018-09-18T15:46:15.567Z,4.67
2018-09-18T15:48:44.380Z,4.70
2018-09-18T15:51:13.284Z,5.03
2018-09-18T15:53:41.791Z,5.10
2018-09-18T15:56:10.346Z,4.20
2018-09-18T15:58:39.369Z,4.30
2018-09-18T16:01:08.000Z,4.67
2018-09-18T16:03:36.931Z,4.70
2018-09-18T16:06:06.449Z,3.93
2018-09-18T16:08:35.375Z,4.80
2018-09-18T16:11:04.600Z,4.87
2018-09-18T16:13:33.147Z,4.80
2018-09-18T16:16:03.515Z,4.77
2018-09-18T16:18:32.015Z,4.53
2018-09-18T16:21:00.736Z,4.20
2018-09-18T16:23:29.252Z,5.37
2018-09-18T16:25:57.807Z,4.97
2018-09-18T16:28:26.917Z,4.43
2018-09-18T16:30:56.160Z,5.27
2018-09-18T16:33:24.587Z,5.30
2018-09-18T16:35:53.281Z,5.17
2018-09-18T16:38:21.812Z,5.90
2018-09-18T16:40:50.988Z,6.77
2018-09-18T16:43:20.167Z,5.17
2018-09-18T16:45:49.923Z,7.70
2018-09-18T16:48:20.878Z,5.60
2018-09-18T16:50:49.462Z,7.30
2018-09-18T16:53:18.688Z,5.73
2018-09-18T16:55:47.319Z,5.90
2018-09-18T16:58:16.052Z,6.10
2018-09-18T17:00:44.644Z,6.10
2018-09-18T17:03:13.255Z,6.20
2018-09-18T17:05:42.794Z,6.67
2018-09-18T17:08:12.022Z,6.83
2018-09-18T17:10:40.728Z,5.40
2018-09-18T17:13:09.368Z,6.30
2018-09-18T17:15:37.914Z,6.13
2018-09-18T17:18:07.062Z,5.03
2018-09-18T17:20:35.644Z,6.17
2018-09-18T17:23:04.346Z,6.13
2018-09-18T17:25:33.627Z,6.07
2018-09-18T17:28:02.355Z,5.70
2018-09-18T17:30:30.992Z,5.77
2018-09-18T17:33:00.131Z,5.53
2018-09-18T17:35:28.797Z,6.83
2018-09-18T17:37:58.785Z,5.83
2018-09-18T17:40:27.376Z,5.60
2018-09-18T17:42:56.059Z,6.60
2018-09-18T17:45:24.825Z,5.70
2018-09-18T17:47:53.669Z,6.80
2018-09-18T17:50:22.420Z,6.13
2018-09-18T17:52:51.510Z,6.53
2018-09-18T17:55:20.393Z,5.73
2018-09-18T17:57:49.040Z,7.00
2018-09-18T18:00:18.702Z,5.97
2018-09-18T18:02:47.223Z,6.23
2018-09-18T18:05:16.270Z,6.63
2018-09-18T18:07:45.063Z,5.73
2018-09-18T18:10:13.598Z,6.40
2018-09-18T18:12:42.815Z,5.90
2018-09-18T18:15:11.648Z,5.90
2018-09-18T18:17:40.437Z,6.10
2018-09-18T18:20:09.204Z,6.87
2018-09-18T18:22:37.881Z,7.10
2018-09-18T18:25:06.556Z,6.73
2018-09-18T18:27:35.258Z,7.33
2018-09-18T18:30:03.965Z,6.00
2018-09-18T18:32:32.663Z,5.83
2018-09-18T18:35:01.864Z,5.80
2018-09-18T18:37:30.668Z,6.37
2018-09-18T18:39:59.210Z,6.57
2018-09-18T18:42:27.750Z,6.60
2018-09-18T18:44:56.409Z,7.17
2018-09-18T18:47:25.124Z,7.23
2018-09-18T18:49:53.954Z,9.37
2018-09-18T18:52:23.149Z,7.40
2018-09-18T18:54:52.357Z,6.93
2018-09-18T18:57:21.066Z,7.57
2018-09-18T18:59:49.725Z,8.20
2018-09-18T19:02:18.332Z,8.77
2018-09-18T19:04:47.059Z,9.03
2018-09-18T19:07:15.722Z,8.20
2018-09-18T19:09:44.434Z,7.80
2018-09-18T19:12:13.457Z,7.07
2018-09-18T19:14:42.091Z,6.53
2018-09-18T19:17:10.697Z,6.70
2018-09-18T19:19:40.040Z,6.93
2018-09-18T19:22:08.687Z,8.73
2018-09-18T19:24:38.184Z,10.10
2018-09-18T19:27:06.836Z,7.70
2018-09-18T19:29:36.132Z,7.00
2018-09-18T19:32:04.670Z,7.70
2018-09-18T19:34:33.283Z,7.93
2018-09-18T19:37:02.059Z,7.70
2018-09-18T19:39:31.039Z,7.83
2018-09-18T19:42:00.598Z,7.60
2018-09-18T19:44:29.374Z,7.50
2018-09-18T19:46:58.290Z,8.70
2018-09-18T19:49:26.910Z,8.00
2018-09-18T19:51:55.640Z,7.30
2018-09-18T19:54:24.467Z,7.30
2018-09-18T19:56:54.772Z,9.07
2018-09-18T19:59:24.050Z,8.43
2018-09-18T20:01:52.606Z,8.53
2018-09-18T20:04:21.320Z,8.43
2018-09-18T20:06:50.049Z,8.07
2018-09-18T20:09:20.335Z,8.70
2018-09-18T20:11:49.535Z,8.67
2018-09-18T20:14:18.169Z,8.60
2018-09-18T20:16:46.863Z,8.77
2018-09-18T20:19:15.947Z,9.27
2018-09-18T20:21:44.599Z,9.53
2018-09-18T20:24:13.236Z,9.60
2018-09-18T20:26:42.329Z,9.57
2018-09-18T20:29:11.192Z,9.00
2018-09-18T20:31:40.750Z,8.33
2018-09-18T20:34:10.126Z,9.70
2018-09-18T20:36:39.484Z,9.30
2018-09-18T20:39:10.568Z,8.17
2018-09-18T20:41:41.095Z,10.30
2018-09-18T20:44:09.759Z,9.23
2018-09-18T20:46:38.446Z,10.00
2018-09-18T20:49:07.435Z,9.57
2018-09-18T20:51:36.100Z,10.40
2018-09-18T20:54:04.740Z,8.93
2018-09-18T20:56:33.930Z,9.57
2018-09-18T20:59:03.520Z,9.10
2018-09-18T21:01:32.558Z,10.10
2018-09-18T21:04:01.166Z,10.10
2018-09-18T21:06:30.265Z,9.47
2018-09-18T21:08:58.994Z,9.60
2018-09-18T21:11:28.340Z,10.63
2018-09-18T21:13:57.439Z,9.47
2018-09-18T21:16:26.326Z,9.80
2018-09-18T21:18:54.990Z,9.63
2018-09-18T21:21:23.558Z,9.70
2018-09-18T21:23:52.185Z,9.07
2018-09-18T21:26:20.807Z,9.50
2018-09-18T21:28:49.764Z,10.27
2018-09-18T21:31:18.415Z,9.30
2018-09-18T21:33:47.034Z,10.47
2018-09-18T21:36:15.905Z,9.83
2018-09-18T21:38:44.555Z,10.40
2018-09-18T21:41:13.020Z,9.60
2018-09-18T21:43:42.568Z,8.70
2018-09-18T21:46:11.120Z,9.33
2018-09-18T21:48:41.353Z,10.97
2018-09-18T21:51:10.392Z,9.30
2018-09-18T21:53:38.941Z,9.80
2018-09-18T21:56:07.588Z,9.87
2018-09-18T21:58:36.195Z,9.90
2018-09-18T22:01:06.471Z,10.37
2018-09-18T22:03:35.459Z,9.97
2018-09-18T22:06:04.206Z,10.30
2018-09-18T22:08:34.642Z,11.10
2018-09-18T22:11:03.241Z,10.33
2018-09-18T22:13:31.849Z,9.70
2018-09-18T22:16:00.487Z,11.20
2018-09-18T22:18:29.348Z,10.37
2018-09-18T22:20:57.928Z,10.80
2018-09-18T22:23:26.522Z,10.33
2018-09-18T22:25:55.310Z,9.67
2018-09-18T22:28:23.884Z,9.53
2018-09-18T22:30:52.459Z,10.80
2018-09-18T22:33:21.106Z,10.73
2018-09-18T22:35:49.751Z,10.20
2018-09-18T22:38:19.537Z,10.37
2018-09-18T22:40:48.170Z,10.13
2018-09-18T22:43:16.660Z,10.70
2018-09-18T22:45:45.289Z,10.17
2018-09-18T22:48:13.895Z,10.60
2018-09-18T22:50:43.049Z,11.50
2018-09-18T22:53:11.686Z,10.67
2018-09-18T22:55:40.249Z,9.73
2018-09-18T22:58:08.745Z,10.60
2018-09-18T23:00:37.304Z,11.30
2018-09-18T23:03:06.064Z,9.60
2018-09-18T23:05:34.810Z,10.07
2018-09-18T23:08:04.616Z,10.77
2018-09-18T23:10:33.144Z,8.83
2018-09-18T23:13:01.812Z,10.90
2018-09-18T23:15:30.349Z,10.07
2018-09-18T23:17:58.903Z,9.60
2018-09-18T23:20:27.993Z,10.80
2018-09-18T23:22:57.966Z,10.90
2018-09-18T23:25:26.471Z,9.17
2018-09-18T23:27:55.011Z,9.70
2018-09-18T23:30:23.884Z,10.90
2018-09-18T23:32:52.567Z,9.70
2018-09-18T23:35:21.054Z,9.47
2018-09-18T23:37:49.626Z,10.37
2018-09-18T23:40:18.208Z,10.33
2018-09-18T23:42:46.712Z,9.43
2018-09-18T23:45:15.546Z,9.87
2018-09-18T23:47:44.413Z,10.07
2018-09-18T23:50:13.156Z,10.10
2018-09-18T23:52:41.804Z,8.90
2018-09-18T23:55:10.379Z,10.47
2018-09-18T23:57:38.903Z,11.53
